OMA707 HTZA-OOMS
Flight info
| Callsign | OMA707 |
|---|---|
| Flight time | N/A |
| Altitude | 33000 |
| Route | AVEKI UL437 RAGGS/N0473F350 UL431 MOGDU UL437 VEDET B400 RAPDO/N0468F370 B400 DAXAM Y414 DEDSO R401 HAI B400 GEVED N881 OBTIN OBTI1A |
| Aircraft | B738/M-SDE2E3FGHIRWXY/LB1 |
Departure
| Time | 2026-05-01 13:49 |
|---|---|
| Airport | Abeid Amani Karume International Airport (HTZA) |
Arrival
| Time | N/A |
|---|---|
| Airport | Muscat International Airport (OOMS) |
| Time | Latitude | Longitude | Altitude | Speed | Heading |
|---|---|---|---|---|---|
| 2026-05-01 13:07 | -6.22191 | 39.22244 | 59 ft | 0 kts | 264° |
| 2026-05-01 13:40 | -6.22190 | 39.22264 | 59 ft | 4 kts | 269° |
| 2026-05-01 13:40 | -6.22192 | 39.22291 | 53 ft | 4 kts | 283° |
| 2026-05-01 13:40 | -6.22201 | 39.22315 | 53 ft | 4 kts | 320° |
| 2026-05-01 13:41 | -6.22213 | 39.22321 | 58 ft | 1 kts | 354° |
| 2026-05-01 13:43 | -6.22206 | 39.22321 | 52 ft | 3 kts | 354° |
| 2026-05-01 13:43 | -6.22169 | 39.22317 | 58 ft | 8 kts | 354° |
| 2026-05-01 13:43 | -6.22103 | 39.22310 | 54 ft | 11 kts | 354° |
| 2026-05-01 13:44 | -6.22013 | 39.22302 | 59 ft | 15 kts | 354° |
| 2026-05-01 13:44 | -6.21901 | 39.22291 | 58 ft | 17 kts | 354° |
| 2026-05-01 13:44 | -6.21811 | 39.22281 | 58 ft | 7 kts | 354° |
| 2026-05-01 13:44 | -6.21775 | 39.22302 | 54 ft | 6 kts | 65° |
| 2026-05-01 13:45 | -6.21765 | 39.22346 | 54 ft | 6 kts | 81° |
| 2026-05-01 13:45 | -6.21758 | 39.22389 | 55 ft | 6 kts | 81° |
| 2026-05-01 13:45 | -6.21734 | 39.22425 | 61 ft | 7 kts | 33° |
| 2026-05-01 13:45 | -6.21667 | 39.22435 | 61 ft | 12 kts | 359° |
| 2026-05-01 13:46 | -6.21567 | 39.22428 | 54 ft | 16 kts | 355° |
| 2026-05-01 13:46 | -6.21447 | 39.22417 | 62 ft | 18 kts | 355° |
| 2026-05-01 13:46 | -6.21321 | 39.22404 | 60 ft | 19 kts | 354° |
| 2026-05-01 13:46 | -6.21207 | 39.22391 | 55 ft | 11 kts | 353° |
| 2026-05-01 13:47 | -6.21141 | 39.22355 | 54 ft | 11 kts | 345° |
| 2026-05-01 13:47 | -6.21122 | 39.22391 | 57 ft | 8 kts | 150° |
| 2026-05-01 13:47 | -6.21158 | 39.22389 | 57 ft | 0 kts | 175° |
| 2026-05-01 13:48 | -6.21186 | 39.22392 | 60 ft | 22 kts | 175° |
| 2026-05-01 13:48 | -6.21582 | 39.22431 | 57 ft | 92 kts | 175° |
| 2026-05-01 13:48 | -6.22428 | 39.22516 | 54 ft | 151 kts | 174° |
| 2026-05-01 13:48 | -6.23589 | 39.22637 | 395 ft | 176 kts | 174° |
| 2026-05-01 13:49 | -6.24854 | 39.22773 | 1068 ft | 187 kts | 174° |
| 2026-05-01 13:49 | -6.26171 | 39.22912 | 1861 ft | 195 kts | 174° |
| 2026-05-01 13:49 | -6.27604 | 39.23066 | 2121 ft | 219 kts | 174° |
| 2026-05-01 13:49 | -6.29183 | 39.23239 | 2400 ft | 236 kts | 174° |
| 2026-05-01 13:50 | -6.30812 | 39.23631 | 2723 ft | 253 kts | 152° |
| 2026-05-01 13:50 | -6.32125 | 39.24843 | 3242 ft | 265 kts | 121° |
| 2026-05-01 13:50 | -6.32695 | 39.26595 | 4012 ft | 268 kts | 94° |
| 2026-05-01 13:50 | -6.32413 | 39.28445 | 4742 ft | 272 kts | 72° |
| 2026-05-01 13:51 | -6.31721 | 39.30231 | 5524 ft | 276 kts | 69° |
| 2026-05-01 13:51 | -6.31021 | 39.32040 | 6424 ft | 280 kts | 69° |
| 2026-05-01 13:51 | -6.30260 | 39.33831 | 7286 ft | 279 kts | 66° |
| 2026-05-01 13:51 | -6.29516 | 39.35657 | 7824 ft | 287 kts | 77° |
| 2026-05-01 13:52 | -6.29266 | 39.37621 | 8568 ft | 281 kts | 85° |
| 2026-05-01 13:52 | -6.29053 | 39.39602 | 9013 ft | 288 kts | 84° |
| 2026-05-01 13:52 | -6.28804 | 39.41627 | 9615 ft | 293 kts | 83° |
| 2026-05-01 13:52 | -6.28530 | 39.43666 | 10255 ft | 298 kts | 83° |
| 2026-05-01 13:53 | -6.28233 | 39.45799 | 10439 ft | 318 kts | 82° |
| 2026-05-01 13:53 | -6.27551 | 39.50456 | 10749 ft | 355 kts | 82° |
| 2026-05-01 13:53 | -6.27198 | 39.52955 | 10812 ft | 369 kts | 82° |
| 2026-05-01 13:54 | -6.26811 | 39.55554 | 11087 ft | 380 kts | 82° |
| 2026-05-01 13:54 | -6.26433 | 39.58212 | 11483 ft | 386 kts | 82° |
| 2026-05-01 13:54 | -6.25708 | 39.60807 | 11978 ft | 388 kts | 63° |
| 2026-05-01 13:54 | -6.24169 | 39.63032 | 12530 ft | 390 kts | 49° |
| 2026-05-01 13:55 | -6.22128 | 39.64832 | 12987 ft | 393 kts | 35° |
| 2026-05-01 13:55 | -6.19851 | 39.66377 | 13464 ft | 396 kts | 33° |
| 2026-05-01 13:55 | -6.17531 | 39.67891 | 13949 ft | 399 kts | 33° |
| 2026-05-01 13:55 | -6.15190 | 39.69409 | 14424 ft | 402 kts | 33° |
| 2026-05-01 13:56 | -6.12840 | 39.70941 | 14884 ft | 404 kts | 33° |
| 2026-05-01 13:56 | -6.10485 | 39.72490 | 15318 ft | 406 kts | 33° |
| 2026-05-01 13:56 | -6.08117 | 39.74059 | 15725 ft | 409 kts | 33° |
| 2026-05-01 13:56 | -6.05735 | 39.75647 | 16140 ft | 411 kts | 33° |
| 2026-05-01 13:57 | -6.03342 | 39.77247 | 16540 ft | 414 kts | 33° |
| 2026-05-01 13:57 | -6.01750 | 39.78312 | 16794 ft | 416 kts | 33° |
| 2026-05-01 13:57 | -5.98519 | 39.80477 | 17316 ft | 419 kts | 33° |
| 2026-05-01 13:57 | -5.96083 | 39.82107 | 17753 ft | 421 kts | 33° |
| 2026-05-01 13:58 | -5.93660 | 39.83742 | 18042 ft | 422 kts | 33° |
| 2026-05-01 13:58 | -5.91202 | 39.85390 | 18265 ft | 427 kts | 33° |
| 2026-05-01 13:58 | -5.88725 | 39.87047 | 18636 ft | 428 kts | 33° |
| 2026-05-01 13:58 | -5.86243 | 39.88706 | 19009 ft | 429 kts | 33° |
| 2026-05-01 13:59 | -5.83766 | 39.90369 | 19261 ft | 429 kts | 33° |
| 2026-05-01 13:59 | -5.81265 | 39.92049 | 19434 ft | 435 kts | 33° |
| 2026-05-01 13:59 | -5.78742 | 39.93733 | 19711 ft | 437 kts | 33° |
| 2026-05-01 13:59 | -5.76207 | 39.95424 | 20033 ft | 438 kts | 33° |
| 2026-05-01 14:00 | -5.73661 | 39.97124 | 20342 ft | 439 kts | 33° |
| 2026-05-01 14:00 | -5.71112 | 39.98827 | 20621 ft | 441 kts | 33° |
| 2026-05-01 14:00 | -5.68551 | 40.00539 | 20889 ft | 443 kts | 33° |
| 2026-05-01 14:00 | -5.65979 | 40.02260 | 21153 ft | 445 kts | 33° |
| 2026-05-01 14:01 | -5.63398 | 40.03986 | 21433 ft | 446 kts | 33° |
| 2026-05-01 14:01 | -5.60814 | 40.05714 | 21687 ft | 448 kts | 33° |
| 2026-05-01 14:01 | -5.58212 | 40.07454 | 21927 ft | 450 kts | 33° |
| 2026-05-01 14:01 | -5.55613 | 40.09197 | 22174 ft | 448 kts | 33° |
| 2026-05-01 14:02 | -5.53008 | 40.10961 | 22404 ft | 452 kts | 33° |
| 2026-05-01 14:02 | -5.50389 | 40.12708 | 22675 ft | 452 kts | 33° |
| 2026-05-01 14:02 | -5.47761 | 40.14456 | 22874 ft | 454 kts | 33° |
| 2026-05-01 14:02 | -5.45118 | 40.16214 | 23052 ft | 457 kts | 33° |
| 2026-05-01 14:03 | -5.42467 | 40.17981 | 23236 ft | 459 kts | 33° |
| 2026-05-01 14:03 | -5.39806 | 40.19758 | 23454 ft | 460 kts | 33° |
| 2026-05-01 14:03 | -5.37143 | 40.21537 | 23675 ft | 460 kts | 33° |
| 2026-05-01 14:03 | -5.34471 | 40.23323 | 23866 ft | 462 kts | 33° |
| 2026-05-01 14:04 | -5.31793 | 40.25112 | 24044 ft | 463 kts | 33° |
| 2026-05-01 14:04 | -5.29109 | 40.26905 | 24230 ft | 464 kts | 33° |
| 2026-05-01 14:04 | -5.26416 | 40.28704 | 24413 ft | 465 kts | 33° |
| 2026-05-01 14:04 | -5.24629 | 40.29898 | 24537 ft | 466 kts | 33° |
| 2026-05-01 14:05 | -5.21013 | 40.32313 | 24788 ft | 468 kts | 33° |
| 2026-05-01 14:05 | -5.18297 | 40.34128 | 24953 ft | 469 kts | 33° |
| 2026-05-01 14:05 | -5.15580 | 40.35941 | 25126 ft | 470 kts | 33° |
| 2026-05-01 14:05 | -5.12858 | 40.37759 | 25280 ft | 471 kts | 33° |
| 2026-05-01 14:06 | -5.10176 | 40.39648 | 25428 ft | 472 kts | 36° |
| 2026-05-01 14:06 | -5.07572 | 40.41660 | 25579 ft | 473 kts | 38° |
| 2026-05-01 14:06 | -5.05000 | 40.43726 | 25727 ft | 474 kts | 38° |
| 2026-05-01 14:06 | -5.02430 | 40.45805 | 25866 ft | 475 kts | 38° |
| 2026-05-01 14:07 | -4.99849 | 40.47881 | 26003 ft | 476 kts | 38° |
| 2026-05-01 14:07 | -4.97253 | 40.49949 | 26141 ft | 477 kts | 38° |
| 2026-05-01 14:07 | -4.94648 | 40.52011 | 26278 ft | 478 kts | 38° |
| 2026-05-01 14:08 | -4.89415 | 40.56133 | 26539 ft | 479 kts | 38° |
| 2026-05-01 14:08 | -4.86788 | 40.58203 | 26661 ft | 480 kts | 38° |
| 2026-05-01 14:08 | -4.84159 | 40.60275 | 26791 ft | 481 kts | 38° |
| 2026-05-01 14:08 | -4.81504 | 40.62325 | 26907 ft | 482 kts | 35° |
| 2026-05-01 14:09 | -4.78701 | 40.64167 | 27017 ft | 483 kts | 31° |
| 2026-05-01 14:09 | -4.75822 | 40.65913 | 27139 ft | 484 kts | 30° |
| 2026-05-01 14:09 | -4.72922 | 40.67627 | 27298 ft | 484 kts | 30° |
| 2026-05-01 14:09 | -4.70026 | 40.69338 | 27485 ft | 483 kts | 30° |
| 2026-05-01 14:10 | -4.67139 | 40.71058 | 27673 ft | 482 kts | 31° |
| 2026-05-01 14:10 | -4.64267 | 40.72787 | 27837 ft | 481 kts | 31° |
| 2026-05-01 14:10 | -4.61400 | 40.74527 | 27989 ft | 482 kts | 31° |
| 2026-05-01 14:10 | -4.58539 | 40.76271 | 28169 ft | 481 kts | 31° |
| 2026-05-01 14:11 | -4.55678 | 40.78018 | 28359 ft | 480 kts | 31° |
| 2026-05-01 14:11 | -4.49978 | 40.81500 | 28707 ft | 480 kts | 31° |
| 2026-05-01 14:11 | -4.47127 | 40.83240 | 28861 ft | 480 kts | 31° |
| 2026-05-01 14:12 | -4.44280 | 40.84977 | 29041 ft | 479 kts | 31° |
| 2026-05-01 14:12 | -4.41435 | 40.86713 | 29237 ft | 478 kts | 31° |
| 2026-05-01 14:12 | -4.38595 | 40.88446 | 29409 ft | 478 kts | 31° |
| 2026-05-01 14:12 | -4.35752 | 40.90179 | 29589 ft | 478 kts | 31° |
| 2026-05-01 14:13 | -4.32911 | 40.91911 | 29777 ft | 477 kts | 31° |
| 2026-05-01 14:13 | -4.30999 | 40.93076 | 29894 ft | 477 kts | 31° |
| 2026-05-01 14:13 | -4.27249 | 40.95363 | 30155 ft | 476 kts | 31° |
| 2026-05-01 14:13 | -4.24424 | 40.97086 | 30354 ft | 475 kts | 31° |
| 2026-05-01 14:14 | -4.21601 | 40.98807 | 30549 ft | 475 kts | 31° |
| 2026-05-01 14:14 | -4.18778 | 41.00528 | 30744 ft | 474 kts | 31° |
| 2026-05-01 14:14 | -4.15963 | 41.02243 | 30946 ft | 474 kts | 31° |
| 2026-05-01 14:14 | -4.13147 | 41.03959 | 31166 ft | 473 kts | 31° |
| 2026-05-01 14:15 | -4.10341 | 41.05669 | 31361 ft | 472 kts | 31° |
| 2026-05-01 14:15 | -4.08441 | 41.06828 | 31486 ft | 472 kts | 31° |
| 2026-05-01 14:15 | -4.05634 | 41.08539 | 31685 ft | 472 kts | 31° |
| 2026-05-01 14:15 | -4.02834 | 41.10246 | 31880 ft | 471 kts | 31° |
| 2026-05-01 14:16 | -4.00035 | 41.11951 | 32054 ft | 471 kts | 32° |
| 2026-05-01 14:16 | -3.97305 | 41.13765 | 32247 ft | 470 kts | 36° |
| 2026-05-01 14:16 | -3.94662 | 41.15685 | 32441 ft | 470 kts | 37° |
| 2026-05-01 14:16 | -3.92046 | 41.17644 | 32663 ft | 469 kts | 37° |
| 2026-05-01 14:17 | -3.89446 | 41.19608 | 32878 ft | 468 kts | 37° |
| 2026-05-01 14:17 | -3.86842 | 41.21568 | 32879 ft | 470 kts | 37° |
| 2026-05-01 14:17 | -3.81637 | 41.25460 | 32887 ft | 469 kts | 37° |
| 2026-05-01 14:18 | -3.76400 | 41.29342 | 32900 ft | 468 kts | 37° |
| 2026-05-01 14:18 | -3.71178 | 41.33207 | 32898 ft | 466 kts | 37° |
| 2026-05-01 14:19 | -3.65966 | 41.37061 | 32902 ft | 465 kts | 37° |
| 2026-05-01 14:19 | -3.60764 | 41.40906 | 32905 ft | 465 kts | 37° |
| 2026-05-01 14:20 | -3.52964 | 41.46672 | 32897 ft | 465 kts | 37° |
| 2026-05-01 14:21 | -3.47756 | 41.50523 | 32872 ft | 466 kts | 37° |
| 2026-05-01 14:21 | -3.42530 | 41.54386 | 32877 ft | 467 kts | 37° |
| 2026-05-01 14:22 | -3.34681 | 41.60187 | 32872 ft | 468 kts | 37° |
| 2026-05-01 14:22 | -3.29436 | 41.64062 | 32874 ft | 469 kts | 37° |
| 2026-05-01 14:23 | -3.24185 | 41.67941 | 32864 ft | 469 kts | 37° |
| 2026-05-01 14:23 | -3.18928 | 41.71823 | 32864 ft | 470 kts | 37° |
| 2026-05-01 14:24 | -3.13668 | 41.75710 | 32878 ft | 470 kts | 37° |
| 2026-05-01 14:24 | -3.08403 | 41.79599 | 32881 ft | 470 kts | 37° |
| 2026-05-01 14:25 | -3.03136 | 41.83489 | 32880 ft | 471 kts | 37° |
| 2026-05-01 14:25 | -2.97866 | 41.87380 | 32875 ft | 470 kts | 37° |
| 2026-05-01 14:26 | -2.89972 | 41.93205 | 32874 ft | 470 kts | 37° |
| 2026-05-01 14:27 | -2.84706 | 41.97093 | 32869 ft | 470 kts | 37° |
| 2026-05-01 14:27 | -2.79442 | 42.00979 | 32871 ft | 470 kts | 37° |
| 2026-05-01 14:28 | -2.71552 | 42.06800 | 32870 ft | 470 kts | 37° |
| 2026-05-01 14:28 | -2.66284 | 42.10688 | 32869 ft | 470 kts | 37° |
| 2026-05-01 14:29 | -2.61023 | 42.14570 | 32871 ft | 470 kts | 37° |
| 2026-05-01 14:30 | -2.50496 | 42.22335 | 32870 ft | 470 kts | 37° |
| 2026-05-01 14:31 | -2.42608 | 42.28151 | 32873 ft | 469 kts | 37° |
| 2026-05-01 14:31 | -2.37391 | 42.31999 | 32867 ft | 469 kts | 37° |
| 2026-05-01 14:32 | -2.32137 | 42.35875 | 32873 ft | 469 kts | 37° |
| 2026-05-01 14:32 | -2.26882 | 42.39751 | 32870 ft | 469 kts | 37° |
| 2026-05-01 14:33 | -2.21622 | 42.43629 | 32867 ft | 469 kts | 37° |
| 2026-05-01 14:33 | -2.16241 | 42.47412 | 32862 ft | 470 kts | 35° |
| 2026-05-01 14:34 | -2.10842 | 42.51103 | 32860 ft | 470 kts | 35° |
| 2026-05-01 14:34 | -2.05464 | 42.54816 | 32863 ft | 470 kts | 35° |
| 2026-05-01 14:35 | -2.00124 | 42.58520 | 32860 ft | 470 kts | 35° |
| 2026-05-01 14:35 | -1.94719 | 42.62206 | 32859 ft | 470 kts | 34° |
| 2026-05-01 14:36 | -1.89261 | 42.65888 | 32862 ft | 470 kts | 34° |
| 2026-05-01 14:36 | -1.83838 | 42.69549 | 32862 ft | 471 kts | 34° |
| 2026-05-01 14:37 | -1.78413 | 42.73224 | 32861 ft | 471 kts | 35° |
| 2026-05-01 14:37 | -1.72988 | 42.76898 | 32861 ft | 471 kts | 34° |
| 2026-05-01 14:38 | -1.67562 | 42.80573 | 32860 ft | 471 kts | 35° |
| 2026-05-01 14:38 | -1.62152 | 42.84240 | 32862 ft | 470 kts | 35° |
| 2026-05-01 14:39 | -1.56743 | 42.87904 | 32873 ft | 469 kts | 34° |
| 2026-05-01 14:39 | -1.51336 | 42.91565 | 32879 ft | 469 kts | 34° |
| 2026-05-01 14:40 | -1.45971 | 42.95198 | 32879 ft | 469 kts | 34° |
| 2026-05-01 14:40 | -1.40562 | 42.98863 | 32880 ft | 469 kts | 34° |
| 2026-05-01 14:41 | -1.35154 | 43.02524 | 32879 ft | 470 kts | 35° |
| 2026-05-01 14:41 | -1.29746 | 43.06184 | 32881 ft | 469 kts | 34° |
| 2026-05-01 14:42 | -1.24308 | 43.09867 | 32878 ft | 469 kts | 34° |
| 2026-05-01 14:42 | -1.18903 | 43.13527 | 32883 ft | 469 kts | 34° |
| 2026-05-01 14:43 | -1.13496 | 43.17188 | 32877 ft | 470 kts | 34° |
| 2026-05-01 14:43 | -1.08079 | 43.20856 | 32869 ft | 470 kts | 34° |
| 2026-05-01 14:44 | -1.02661 | 43.24525 | 32870 ft | 470 kts | 34° |
| 2026-05-01 14:44 | -0.94532 | 43.30026 | 32871 ft | 470 kts | 34° |
| 2026-05-01 14:45 | -0.86437 | 43.35505 | 32870 ft | 470 kts | 34° |
| 2026-05-01 14:46 | -0.80979 | 43.39200 | 32871 ft | 470 kts | 34° |
| 2026-05-01 14:46 | -0.72891 | 43.44675 | 32872 ft | 470 kts | 34° |
| 2026-05-01 14:47 | -0.67437 | 43.48366 | 32869 ft | 471 kts | 34° |
| 2026-05-01 14:48 | -0.59338 | 43.53847 | 32870 ft | 471 kts | 34° |
| 2026-05-01 14:48 | -0.51194 | 43.59358 | 32870 ft | 471 kts | 34° |
| 2026-05-01 14:49 | -0.40333 | 43.66709 | 32895 ft | 471 kts | 34° |
| 2026-05-01 14:50 | -0.29461 | 43.74065 | 32898 ft | 472 kts | 34° |
| 2026-05-01 14:51 | -0.21297 | 43.79591 | 32898 ft | 473 kts | 34° |
| 2026-05-01 14:52 | -0.13121 | 43.85123 | 32897 ft | 473 kts | 34° |
| 2026-05-01 14:53 | -0.05866 | 43.90032 | 32896 ft | 473 kts | 34° |
| 2026-05-01 14:53 | -0.00425 | 43.93715 | 32886 ft | 472 kts | 34° |
| 2026-05-01 14:54 | 0.05020 | 43.97398 | 32884 ft | 473 kts | 34° |
| 2026-05-01 14:54 | 0.10474 | 44.01091 | 32881 ft | 473 kts | 34° |
| 2026-05-01 14:55 | 0.15922 | 44.04778 | 32880 ft | 473 kts | 34° |
| 2026-05-01 14:55 | 0.21369 | 44.08463 | 32879 ft | 472 kts | 34° |
| 2026-05-01 14:56 | 0.26804 | 44.12144 | 32879 ft | 472 kts | 34° |
| 2026-05-01 14:56 | 0.32244 | 44.15824 | 32880 ft | 472 kts | 34° |
| 2026-05-01 14:57 | 0.37682 | 44.19491 | 32880 ft | 471 kts | 34° |
| 2026-05-01 14:57 | 0.45837 | 44.24976 | 32880 ft | 471 kts | 34° |
| 2026-05-01 14:58 | 0.51270 | 44.28632 | 32878 ft | 471 kts | 34° |
| 2026-05-01 14:58 | 0.56715 | 44.32298 | 32870 ft | 472 kts | 34° |
| 2026-05-01 14:59 | 0.62161 | 44.35965 | 32863 ft | 472 kts | 34° |
| 2026-05-01 14:59 | 0.67611 | 44.39633 | 32861 ft | 472 kts | 34° |
| 2026-05-01 15:00 | 0.75772 | 44.45127 | 32859 ft | 471 kts | 34° |
| 2026-05-01 15:01 | 0.81220 | 44.48797 | 32862 ft | 471 kts | 34° |
| 2026-05-01 15:01 | 0.86656 | 44.52458 | 32863 ft | 471 kts | 34° |
| 2026-05-01 15:02 | 0.92094 | 44.56119 | 32860 ft | 471 kts | 34° |
| 2026-05-01 15:02 | 0.97499 | 44.59759 | 32861 ft | 471 kts | 34° |
| 2026-05-01 15:03 | 1.02942 | 44.63425 | 32863 ft | 472 kts | 34° |
| 2026-05-01 15:03 | 1.08390 | 44.67093 | 32861 ft | 472 kts | 34° |
| 2026-05-01 15:04 | 1.13838 | 44.70762 | 32860 ft | 472 kts | 34° |
| 2026-05-01 15:04 | 1.19282 | 44.74429 | 32862 ft | 472 kts | 34° |
| 2026-05-01 15:05 | 1.24725 | 44.78096 | 32860 ft | 472 kts | 34° |
| 2026-05-01 15:05 | 1.30167 | 44.81762 | 32860 ft | 472 kts | 34° |
| 2026-05-01 15:06 | 1.35617 | 44.85434 | 32863 ft | 472 kts | 34° |
| 2026-05-01 15:06 | 1.41066 | 44.89104 | 32861 ft | 472 kts | 34° |
| 2026-05-01 15:07 | 1.46520 | 44.92779 | 32862 ft | 473 kts | 34° |
| 2026-05-01 15:07 | 1.51980 | 44.96458 | 32860 ft | 473 kts | 34° |
| 2026-05-01 15:08 | 1.57427 | 45.00127 | 32861 ft | 472 kts | 34° |
| 2026-05-01 15:08 | 1.62876 | 45.03799 | 32860 ft | 472 kts | 34° |
| 2026-05-01 15:09 | 1.68318 | 45.07468 | 32863 ft | 472 kts | 34° |
| 2026-05-01 15:09 | 1.73756 | 45.11133 | 32859 ft | 471 kts | 34° |
| 2026-05-01 15:10 | 1.79195 | 45.14798 | 32860 ft | 470 kts | 34° |
| 2026-05-01 15:10 | 1.87327 | 45.20281 | 32860 ft | 470 kts | 34° |
| 2026-05-01 15:11 | 1.95449 | 45.25757 | 32862 ft | 469 kts | 34° |
| 2026-05-01 15:12 | 2.00860 | 45.29400 | 32862 ft | 468 kts | 34° |
| 2026-05-01 15:12 | 2.09208 | 45.34481 | 32864 ft | 469 kts | 31° |
| 2026-05-01 15:14 | 2.23258 | 45.42789 | 32859 ft | 470 kts | 31° |
| 2026-05-01 15:14 | 2.31687 | 45.47835 | 32859 ft | 471 kts | 31° |
| 2026-05-01 15:15 | 2.42947 | 45.54578 | 32858 ft | 472 kts | 31° |
| 2026-05-01 15:16 | 2.54167 | 45.61296 | 32861 ft | 471 kts | 31° |
| 2026-05-01 15:18 | 2.68231 | 45.69719 | 32860 ft | 471 kts | 31° |
| 2026-05-01 15:19 | 2.79521 | 45.76482 | 32863 ft | 471 kts | 31° |
| 2026-05-01 15:19 | 2.87949 | 45.81533 | 32860 ft | 471 kts | 31° |
| 2026-05-01 15:20 | 2.96340 | 45.86560 | 32860 ft | 471 kts | 31° |
| 2026-05-01 15:21 | 3.01959 | 45.89927 | 32867 ft | 472 kts | 31° |
| 2026-05-01 15:21 | 3.07615 | 45.93317 | 33135 ft | 475 kts | 31° |
| 2026-05-01 15:21 | 3.10437 | 45.95008 | 33425 ft | 472 kts | 31° |
| 2026-05-01 15:22 | 3.16061 | 45.98379 | 33872 ft | 471 kts | 31° |
| 2026-05-01 15:22 | 3.18870 | 46.00063 | 34034 ft | 471 kts | 31° |
| 2026-05-01 15:22 | 3.21681 | 46.01750 | 34239 ft | 471 kts | 31° |
| 2026-05-01 15:23 | 3.24490 | 46.03435 | 34483 ft | 469 kts | 31° |
| 2026-05-01 15:23 | 3.27286 | 46.05112 | 34708 ft | 468 kts | 31° |
| 2026-05-01 15:23 | 3.30081 | 46.06789 | 34864 ft | 467 kts | 31° |
| 2026-05-01 15:23 | 3.32876 | 46.08465 | 34858 ft | 470 kts | 31° |
| 2026-05-01 15:24 | 3.38487 | 46.11831 | 34871 ft | 470 kts | 31° |
| 2026-05-01 15:24 | 3.44091 | 46.15192 | 34871 ft | 469 kts | 31° |
| 2026-05-01 15:25 | 3.49687 | 46.18547 | 34869 ft | 468 kts | 31° |
| 2026-05-01 15:25 | 3.55275 | 46.21902 | 34871 ft | 468 kts | 31° |
| 2026-05-01 15:26 | 3.60825 | 46.25234 | 34859 ft | 468 kts | 31° |
| 2026-05-01 15:26 | 3.66406 | 46.28584 | 34852 ft | 467 kts | 31° |
| 2026-05-01 15:27 | 3.71983 | 46.31932 | 34852 ft | 467 kts | 31° |
| 2026-05-01 15:28 | 3.80337 | 46.36948 | 34851 ft | 467 kts | 31° |
| 2026-05-01 15:28 | 3.85908 | 46.40293 | 34853 ft | 467 kts | 31° |
| 2026-05-01 15:29 | 3.94283 | 46.45323 | 34853 ft | 468 kts | 31° |
| 2026-05-01 15:30 | 4.04568 | 46.51505 | 34855 ft | 470 kts | 31° |
| 2026-05-01 15:31 | 4.22317 | 46.62174 | 34851 ft | 471 kts | 31° |
| 2026-05-01 15:32 | 4.33547 | 46.68927 | 34842 ft | 471 kts | 31° |
| 2026-05-01 15:34 | 4.49433 | 46.78486 | 34842 ft | 470 kts | 31° |